Terminal Aerodrome Forecast
Issued by NWS Blacksburg, VA

Current Version | Previous Version | Graphics & Text | Print | Product List | Glossary On
Versions: 1 2 3 4 5 6 7 8 9 10 11 12 13 14 15 16 17 18 19 20 21 22 23 24 25 26 27 28 29 30 31 32 33 34 35 36 37 38 39 40 41 42
000
FTUS41 KRNK 211729
TAFBLF
TAF
KBLF 211729Z 2118/2218 30008G16KT P6SM BKN007 OVC012
     FM212300 30010KT 3SM -DZ BR OVC004
     FM220800 30010KT 5SM BR BKN007
      TEMPO 2208/2212 1SM BR
     FM221400 31008G16KT P6SM SCT030=

USA.gov is the U.S. government's official web portal to all federal, state and local government web resources and services.